首页
METAR-TAF:

METAR-TAF

机场 :

Roanoke Regional Airport (Woodrum Field)

羅阿諾克, 弗吉尼亚州, 美国

纬度: 37-19-01N, 经度: 079-58-27W, 海拔: 358米

当前天气观测

该预报发布于56分钟前的07:54 UTC
静风
温度 11°C
湿度 71%
气压 1020 hPa
能見度: 16.1公里
天空无云

METAR: KROA 230754Z 00000KT 10SM CLR 11/06 A3013 RMK AO2 SLP199 T01110061

时间: 04:50 (08:50 UTC)

预报

该预报发布于3小时和30分钟前的05:20 UTC
预报有效从23日的 06点(UTC)到 24日的 06点(UTC)
风速节,风向
能見度: 10公里
天空无云
从 23日的 1600点(UTC)
风速5节,风向西转西南
能見度: 10公里
少量云层高于25000英尺
从 23日的 2000点(UTC)
风速10节,风向西转西南
能見度: 10公里
少量云层高于25000英尺
从 24日的 0300点(UTC)
风速5节,风向西
能見度: 10公里
散云层高于20000英尺

TAF: KROA 230520Z 2306/2406 00000KT P6SM SKC FM231600 24005KT P6SM FEW250 FM232000 24010KT P6SM FEW250 FM240300 26005KT P6SM SCT200

超过4000个机场的气象观测和天气预报(METAR&TAF报告)。

可查询的气象台以黄色和红色小点在地图上表示。

将鼠标移到小点上方,可查看气象台名称。

然后点击查看天气观测和预报。

如需切换地图:点击带黑十字的绿色按钮放大地图;点击带横线的绿色按钮缩小地图;或者点击绿色箭头查看邻近地区的地图。


METAR-TAF: